KIAG/IAG METAR and TAF weather

Enter ICAO airport designator
Station Type Date Time Source
KIAG METAR 2020/05/29 20:44 UTC NOAA

KIAG 292044Z 24016G22KT 10SM SCT021 BKN029 OVC080 21/17 A2977 RMK AO2 LTG DSNT S RAB30E42 P0000 T02060172 $


Station Type Date Time Source
KIAG Decoded METAR 2020/05/29 20:44 UTC NOAA

NIAGARA FALLS INTERNATIONAL AIRPORT, NY, United States (KIAG) 43-07N 078-56W 182M
May 29, 2020 - 04:44 PM EDT / 2020.05.29 2044 UTC
Wind: from the WSW (240 degrees) at 18 MPH (16 KT) gusting to 25 MPH (22 KT):0
Visibility: 10 mile(s):0
Sky conditions: overcast
Weather: Lightning observed
Precipitation last hour: A trace
Temperature: 69.1 F (20.6 C)
Dew Point: 63.0 F (17.2 C)
Relative Humidity: 80%
Pressure (altimeter): 29.77 in. Hg (1008 hPa)
ob: KIAG 292044Z 24016G22KT 10SM SCT021 BKN029 OVC080 21/17 A2977 RMK AO2 LTG DSNT S RAB30E42 P0000 T02060172
cycle: 20

Station Type Date Time Source
KIAG TAF 2020/05/29 18:24 UTC NOAA

TAF KIAG 291720Z 2918/3018 22015G25KT 5SM -SHRA VCTS BKN050CB
FM292100 25015G25KT P6SM -SHRA OVC025
FM300200 27010KT P6SM BKN025
FM300400 26010KT P6SM BKN070
FM301300 24009KT P6SM BKN020

Example: see airport list